sensor_id;sensor_type;location;lat;lon;timestamp;P1;P2;P0
46381;PMS5003;66809;52.974;-2.514;2024-03-06T00:01:40;16.433333333333334;14.433333333333334;
46381;PMS5003;66809;52.974;-2.514;2024-03-06T00:03:39;16.6;14.65;
46381;PMS5003;66809;52.974;-2.514;2024-03-06T00:05:40;16.9;15.033333333333333;
46381;PMS5003;66809;52.974;-2.514;2024-03-06T00:07:40;17.166666666666668;15.3;
46381;PMS5003;66809;52.974;-2.514;2024-03-06T00:09:39;17.433333333333334;15.5;
46381;PMS5003;66809;52.974;-2.514;2024-03-06T00:11:39;17.716666666666665;15.75;
46381;PMS5003;66809;52.974;-2.514;2024-03-06T00:13:40;17.9;15.916666666666666;
46381;PMS5003;66809;52.974;-2.514;2024-03-06T00:15:40;18.083333333333332;16.016666666666666;
46381;PMS5003;66809;52.974;-2.514;2024-03-06T00:17:39;17.966666666666665;15.85;
46381;PMS5003;66809;52.974;-2.514;2024-03-06T00:19:40;17.95;15.783333333333333;
46381;PMS5003;66809;52.974;-2.514;2024-03-06T00:21:39;18.0;15.85;
46381;PMS5003;66809;52.974;-2.514;2024-03-06T00:23:40;18.083333333333332;15.95;
46381;PMS5003;66809;52.974;-2.514;2024-03-06T00:25:40;18.15;16.0;
46381;PMS5003;66809;52.974;-2.514;2024-03-06T00:27:39;18.283333333333335;16.116666666666667;
46381;PMS5003;66809;52.974;-2.514;2024-03-06T00:29:40;18.316666666666666;16.166666666666668;
46381;PMS5003;66809;52.974;-2.514;2024-03-06T00:31:42;18.466666666666665;16.166666666666668;
46381;PMS5003;66809;52.974;-2.514;2024-03-06T00:33:40;18.583333333333332;16.316666666666666;
46381;PMS5003;66809;52.974;-2.514;2024-03-06T00:35:40;18.75;16.466666666666665;
46381;PMS5003;66809;52.974;-2.514;2024-03-06T00:37:39;18.716666666666665;16.433333333333334;
46381;PMS5003;66809;52.974;-2.514;2024-03-06T00:39:40;18.816666666666666;16.566666666666666;
46381;PMS5003;66809;52.974;-2.514;2024-03-06T00:41:40;18.883333333333333;16.666666666666668;
46381;PMS5003;66809;52.974;-2.514;2024-03-06T00:43:40;18.9;16.7;
46381;PMS5003;66809;52.974;-2.514;2024-03-06T00:45:39;19.25;17.016666666666666;
46381;PMS5003;66809;52.974;-2.514;2024-03-06T00:47:40;19.466666666666665;17.216666666666665;
46381;PMS5003;66809;52.974;-2.514;2024-03-06T00:49:40;19.65;17.366666666666667;
46381;PMS5003;66809;52.974;-2.514;2024-03-06T00:51:39;19.6;17.4;
46381;PMS5003;66809;52.974;-2.514;2024-03-06T00:53:40;19.666666666666668;17.416666666666668;
46381;PMS5003;66809;52.974;-2.514;2024-03-06T00:55:40;19.6;17.366666666666667;
46381;PMS5003;66809;52.974;-2.514;2024-03-06T00:57:39;19.366666666666667;17.216666666666665;
46381;PMS5003;66809;52.974;-2.514;2024-03-06T00:59:40;19.216666666666665;17.1;
46381;PMS5003;66809;52.974;-2.514;2024-03-06T01:01:40;19.266666666666666;17.1;
46381;PMS5003;66809;52.974;-2.514;2024-03-06T01:03:39;19.316666666666666;17.066666666666666;
46381;PMS5003;66809;52.974;-2.514;2024-03-06T01:05:40;19.15;16.85;
46381;PMS5003;66809;52.974;-2.514;2024-03-06T01:07:40;19.083333333333332;16.85;
46381;PMS5003;66809;52.974;-2.514;2024-03-06T01:09:40;18.916666666666668;16.75;
46381;PMS5003;66809;52.974;-2.514;2024-03-06T01:11:39;18.766666666666666;16.666666666666668;
46381;PMS5003;66809;52.974;-2.514;2024-03-06T01:13:40;18.8;16.766666666666666;
46381;PMS5003;66809;52.974;-2.514;2024-03-06T01:15:40;18.75;16.733333333333334;
46381;PMS5003;66809;52.974;-2.514;2024-03-06T01:17:39;18.766666666666666;16.766666666666666;
46381;PMS5003;66809;52.974;-2.514;2024-03-06T01:19:40;18.65;16.733333333333334;
46381;PMS5003;66809;52.974;-2.514;2024-03-06T01:21:40;18.866666666666667;16.8;
46381;PMS5003;66809;52.974;-2.514;2024-03-06T01:23:40;18.966666666666665;16.866666666666667;
46381;PMS5003;66809;52.974;-2.514;2024-03-06T01:25:40;19.05;16.916666666666668;
46381;PMS5003;66809;52.974;-2.514;2024-03-06T01:27:39;19.116666666666667;17.033333333333335;
46381;PMS5003;66809;52.974;-2.514;2024-03-06T01:29:40;19.166666666666668;17.066666666666666;
46381;PMS5003;66809;52.974;-2.514;2024-03-06T01:31:39;19.133333333333333;17.116666666666667;
46381;PMS5003;66809;52.974;-2.514;2024-03-06T01:33:39;19.083333333333332;17.033333333333335;
46381;PMS5003;66809;52.974;-2.514;2024-03-06T01:35:40;19.166666666666668;17.1;
46381;PMS5003;66809;52.974;-2.514;2024-03-06T01:37:39;19.25;17.2;
46381;PMS5003;66809;52.974;-2.514;2024-03-06T01:39:40;19.216666666666665;17.133333333333333;
46381;PMS5003;66809;52.974;-2.514;2024-03-06T01:41:44;19.166666666666668;17.066666666666666;
46381;PMS5003;66809;52.974;-2.514;2024-03-06T01:43:40;19.116666666666667;17.066666666666666;
46381;PMS5003;66809;52.974;-2.514;2024-03-06T01:45:40;18.916666666666668;16.866666666666667;
46381;PMS5003;66809;52.974;-2.514;2024-03-06T01:47:39;18.9;16.85;
46381;PMS5003;66809;52.974;-2.514;2024-03-06T01:49:39;18.933333333333334;16.866666666666667;
46381;PMS5003;66809;52.974;-2.514;2024-03-06T01:51:39;18.983333333333334;16.85;
46381;PMS5003;66809;52.974;-2.514;2024-03-06T01:53:40;19.166666666666668;17.05;
46381;PMS5003;66809;52.974;-2.514;2024-03-06T01:55:40;19.283333333333335;17.05;
46381;PMS5003;66809;52.974;-2.514;2024-03-06T01:57:40;19.3;17.033333333333335;
46381;PMS5003;66809;52.974;-2.514;2024-03-06T01:59:39;19.383333333333333;17.066666666666666;
46381;PMS5003;66809;52.974;-2.514;2024-03-06T02:01:40;19.55;17.25;
46381;PMS5003;66809;52.974;-2.514;2024-03-06T02:03:39;19.5;17.25;
46381;PMS5003;66809;52.974;-2.514;2024-03-06T02:05:40;19.616666666666667;17.35;
46381;PMS5003;66809;52.974;-2.514;2024-03-06T02:07:40;19.8;17.466666666666665;
46381;PMS5003;66809;52.974;-2.514;2024-03-06T02:09:39;20.233333333333334;17.816666666666666;
46381;PMS5003;66809;52.974;-2.514;2024-03-06T02:11:39;20.35;17.85;
46381;PMS5003;66809;52.974;-2.514;2024-03-06T02:13:40;20.5;17.966666666666665;
46381;PMS5003;66809;52.974;-2.514;2024-03-06T02:15:40;20.75;18.133333333333333;
46381;PMS5003;66809;52.974;-2.514;2024-03-06T02:17:40;20.683333333333334;18.133333333333333;
46381;PMS5003;66809;52.974;-2.514;2024-03-06T02:19:40;20.816666666666666;18.283333333333335;
46381;PMS5003;66809;52.974;-2.514;2024-03-06T02:21:40;20.766666666666666;18.3;
46381;PMS5003;66809;52.974;-2.514;2024-03-06T02:23:39;20.716666666666665;18.233333333333334;
46381;PMS5003;66809;52.974;-2.514;2024-03-06T02:25:40;20.75;18.266666666666666;
46381;PMS5003;66809;52.974;-2.514;2024-03-06T02:27:40;20.683333333333334;18.233333333333334;
46381;PMS5003;66809;52.974;-2.514;2024-03-06T02:29:40;20.716666666666665;18.283333333333335;
46381;PMS5003;66809;52.974;-2.514;2024-03-06T02:31:39;20.75;18.266666666666666;
46381;PMS5003;66809;52.974;-2.514;2024-03-06T02:33:39;20.866666666666667;18.383333333333333;
46381;PMS5003;66809;52.974;-2.514;2024-03-06T02:35:40;20.866666666666667;18.333333333333332;
46381;PMS5003;66809;52.974;-2.514;2024-03-06T02:37:40;20.733333333333334;18.166666666666668;
46381;PMS5003;66809;52.974;-2.514;2024-03-06T02:39:39;20.633333333333333;18.1;
46381;PMS5003;66809;52.974;-2.514;2024-03-06T02:41:40;20.616666666666667;18.116666666666667;
46381;PMS5003;66809;52.974;-2.514;2024-03-06T02:43:39;20.616666666666667;18.1;
46381;PMS5003;66809;52.974;-2.514;2024-03-06T02:45:40;20.483333333333334;17.95;
46381;PMS5003;66809;52.974;-2.514;2024-03-06T02:47:40;20.216666666666665;17.65;
46381;PMS5003;66809;52.974;-2.514;2024-03-06T02:49:40;19.966666666666665;17.5;
46381;PMS5003;66809;52.974;-2.514;2024-03-06T02:51:39;20.133333333333333;17.65;
46381;PMS5003;66809;52.974;-2.514;2024-03-06T02:53:40;20.1;17.633333333333333;
46381;PMS5003;66809;52.974;-2.514;2024-03-06T02:55:40;20.25;17.75;
46381;PMS5003;66809;52.974;-2.514;2024-03-06T02:57:39;20.55;18.1;
46381;PMS5003;66809;52.974;-2.514;2024-03-06T02:59:40;20.85;18.383333333333333;
46381;PMS5003;66809;52.974;-2.514;2024-03-06T03:01:39;20.95;18.45;
46381;PMS5003;66809;52.974;-2.514;2024-03-06T03:03:40;21.25;18.733333333333334;
46381;PMS5003;66809;52.974;-2.514;2024-03-06T03:05:39;21.433333333333334;18.933333333333334;
46381;PMS5003;66809;52.974;-2.514;2024-03-06T03:07:40;21.3;18.816666666666666;
46381;PMS5003;66809;52.974;-2.514;2024-03-06T03:09:40;20.983333333333334;18.583333333333332;
46381;PMS5003;66809;52.974;-2.514;2024-03-06T03:11:39;20.85;18.483333333333334;
46381;PMS5003;66809;52.974;-2.514;2024-03-06T03:13:40;20.583333333333332;18.233333333333334;
46381;PMS5003;66809;52.974;-2.514;2024-03-06T03:15:40;20.333333333333332;18.1;
46381;PMS5003;66809;52.974;-2.514;2024-03-06T03:17:39;20.466666666666665;18.15;
46381;PMS5003;66809;52.974;-2.514;2024-03-06T03:19:40;20.516666666666666;18.15;
46381;PMS5003;66809;52.974;-2.514;2024-03-06T03:21:42;20.7;18.366666666666667;
46381;PMS5003;66809;52.974;-2.514;2024-03-06T03:23:39;20.9;18.583333333333332;
46381;PMS5003;66809;52.974;-2.514;2024-03-06T03:25:40;21.183333333333334;18.816666666666666;
46381;PMS5003;66809;52.974;-2.514;2024-03-06T03:27:40;21.316666666666666;18.883333333333333;
46381;PMS5003;66809;52.974;-2.514;2024-03-06T03:29:40;21.55;19.05;
46381;PMS5003;66809;52.974;-2.514;2024-03-06T03:31:40;21.7;19.25;
46381;PMS5003;66809;52.974;-2.514;2024-03-06T03:33:39;21.9;19.516666666666666;
46381;PMS5003;66809;52.974;-2.514;2024-03-06T03:35:40;22.133333333333333;19.733333333333334;
46381;PMS5003;66809;52.974;-2.514;2024-03-06T03:37:39;22.333333333333332;19.9;
46381;PMS5003;66809;52.974;-2.514;2024-03-06T03:39:40;22.583333333333332;20.033333333333335;
46381;PMS5003;66809;52.974;-2.514;2024-03-06T03:41:42;22.633333333333333;20.066666666666666;
46381;PMS5003;66809;52.974;-2.514;2024-03-06T03:43:39;22.65;20.083333333333332;
46381;PMS5003;66809;52.974;-2.514;2024-03-06T03:45:39;22.75;20.25;
46381;PMS5003;66809;52.974;-2.514;2024-03-06T03:47:40;22.966666666666665;20.483333333333334;
46381;PMS5003;66809;52.974;-2.514;2024-03-06T03:49:40;23.183333333333334;20.65;
46381;PMS5003;66809;52.974;-2.514;2024-03-06T03:51:39;22.966666666666665;20.533333333333335;
46381;PMS5003;66809;52.974;-2.514;2024-03-06T03:53:39;22.833333333333332;20.416666666666668;
46381;PMS5003;66809;52.974;-2.514;2024-03-06T03:55:40;22.833333333333332;20.533333333333335;
46381;PMS5003;66809;52.974;-2.514;2024-03-06T03:57:40;22.833333333333332;20.55;
46381;PMS5003;66809;52.974;-2.514;2024-03-06T03:59:39;22.766666666666666;20.466666666666665;
46381;PMS5003;66809;52.974;-2.514;2024-03-06T04:01:39;22.633333333333333;20.4;
46381;PMS5003;66809;52.974;-2.514;2024-03-06T04:03:40;22.6;20.35;
46381;PMS5003;66809;52.974;-2.514;2024-03-06T04:05:39;22.383333333333333;20.216666666666665;
46381;PMS5003;66809;52.974;-2.514;2024-03-06T04:07:40;22.483333333333334;20.333333333333332;
46381;PMS5003;66809;52.974;-2.514;2024-03-06T04:09:40;22.65;20.483333333333334;
46381;PMS5003;66809;52.974;-2.514;2024-03-06T04:11:39;22.95;20.766666666666666;
46381;PMS5003;66809;52.974;-2.514;2024-03-06T04:13:39;23.383333333333333;21.183333333333334;
46381;PMS5003;66809;52.974;-2.514;2024-03-06T04:15:40;23.8;21.583333333333332;
46381;PMS5003;66809;52.974;-2.514;2024-03-06T04:17:39;23.9;21.75;
46381;PMS5003;66809;52.974;-2.514;2024-03-06T04:19:39;23.8;21.7;
46381;PMS5003;66809;52.974;-2.514;2024-03-06T04:21:40;23.783333333333335;21.616666666666667;
46381;PMS5003;66809;52.974;-2.514;2024-03-06T04:23:39;23.616666666666667;21.466666666666665;
46381;PMS5003;66809;52.974;-2.514;2024-03-06T04:25:40;23.35;21.333333333333332;
46381;PMS5003;66809;52.974;-2.514;2024-03-06T04:27:40;23.45;21.466666666666665;
46381;PMS5003;66809;52.974;-2.514;2024-03-06T04:29:39;23.316666666666666;21.416666666666668;
46381;PMS5003;66809;52.974;-2.514;2024-03-06T04:31:40;23.2;21.316666666666666;
46381;PMS5003;66809;52.974;-2.514;2024-03-06T04:33:40;23.066666666666666;21.15;
46381;PMS5003;66809;52.974;-2.514;2024-03-06T04:35:39;22.8;21.05;
46381;PMS5003;66809;52.974;-2.514;2024-03-06T04:37:40;22.816666666666666;21.083333333333332;
46381;PMS5003;66809;52.974;-2.514;2024-03-06T04:39:40;22.916666666666668;21.2;
46381;PMS5003;66809;52.974;-2.514;2024-03-06T04:41:39;23.1;21.316666666666666;
46381;PMS5003;66809;52.974;-2.514;2024-03-06T04:43:40;23.466666666666665;21.633333333333333;
46381;PMS5003;66809;52.974;-2.514;2024-03-06T04:45:40;23.683333333333334;21.733333333333334;
46381;PMS5003;66809;52.974;-2.514;2024-03-06T04:47:39;23.616666666666667;21.733333333333334;
46381;PMS5003;66809;52.974;-2.514;2024-03-06T04:49:40;23.783333333333335;21.916666666666668;
46381;PMS5003;66809;52.974;-2.514;2024-03-06T04:51:39;24.15;22.133333333333333;
46381;PMS5003;66809;52.974;-2.514;2024-03-06T04:53:40;24.4;22.283333333333335;
46381;PMS5003;66809;52.974;-2.514;2024-03-06T04:55:40;24.516666666666666;22.35;
46381;PMS5003;66809;52.974;-2.514;2024-03-06T04:57:39;24.55;22.4;
46381;PMS5003;66809;52.974;-2.514;2024-03-06T04:59:39;24.65;22.566666666666666;
46381;PMS5003;66809;52.974;-2.514;2024-03-06T05:01:39;24.616666666666667;22.566666666666666;
46381;PMS5003;66809;52.974;-2.514;2024-03-06T05:03:40;24.8;22.7;
46381;PMS5003;66809;52.974;-2.514;2024-03-06T05:05:40;24.866666666666667;22.716666666666665;
46381;PMS5003;66809;52.974;-2.514;2024-03-06T05:07:39;24.883333333333333;22.733333333333334;
46381;PMS5003;66809;52.974;-2.514;2024-03-06T05:09:40;25.05;22.916666666666668;
46381;PMS5003;66809;52.974;-2.514;2024-03-06T05:11:40;25.316666666666666;23.033333333333335;
46381;PMS5003;66809;52.974;-2.514;2024-03-06T05:13:39;25.016666666666666;22.8;
46381;PMS5003;66809;52.974;-2.514;2024-03-06T05:15:40;24.916666666666668;22.6;
46381;PMS5003;66809;52.974;-2.514;2024-03-06T05:17:40;25.066666666666666;22.616666666666667;
46381;PMS5003;66809;52.974;-2.514;2024-03-06T05:19:39;25.283333333333335;22.816666666666666;
46381;PMS5003;66809;52.974;-2.514;2024-03-06T05:21:40;25.516666666666666;23.033333333333335;
46381;PMS5003;66809;52.974;-2.514;2024-03-06T05:23:39;25.933333333333334;23.366666666666667;
46381;PMS5003;66809;52.974;-2.514;2024-03-06T05:25:39;26.166666666666668;23.55;
46381;PMS5003;66809;52.974;-2.514;2024-03-06T05:27:40;26.116666666666667;23.55;
46381;PMS5003;66809;52.974;-2.514;2024-03-06T05:29:39;26.116666666666667;23.583333333333332;
46381;PMS5003;66809;52.974;-2.514;2024-03-06T05:31:40;26.383333333333333;23.883333333333333;
46381;PMS5003;66809;52.974;-2.514;2024-03-06T05:33:40;26.283333333333335;23.783333333333335;
46381;PMS5003;66809;52.974;-2.514;2024-03-06T05:35:39;26.433333333333334;23.9;
46381;PMS5003;66809;52.974;-2.514;2024-03-06T05:37:39;26.333333333333332;23.833333333333332;
46381;PMS5003;66809;52.974;-2.514;2024-03-06T05:39:40;26.216666666666665;23.733333333333334;
46381;PMS5003;66809;52.974;-2.514;2024-03-06T05:41:39;26.116666666666667;23.716666666666665;
46381;PMS5003;66809;52.974;-2.514;2024-03-06T05:43:39;26.016666666666666;23.6;
46381;PMS5003;66809;52.974;-2.514;2024-03-06T05:45:40;26.066666666666666;23.683333333333334;
46381;PMS5003;66809;52.974;-2.514;2024-03-06T05:47:39;26.316666666666666;23.916666666666668;
46381;PMS5003;66809;52.974;-2.514;2024-03-06T05:49:40;26.233333333333334;23.883333333333333;
46381;PMS5003;66809;52.974;-2.514;2024-03-06T05:51:40;26.316666666666666;23.983333333333334;
46381;PMS5003;66809;52.974;-2.514;2024-03-06T05:53:39;26.383333333333333;24.1;
46381;PMS5003;66809;52.974;-2.514;2024-03-06T05:55:40;26.516666666666666;24.266666666666666;
46381;PMS5003;66809;52.974;-2.514;2024-03-06T05:57:40;26.566666666666666;24.3;
46381;PMS5003;66809;52.974;-2.514;2024-03-06T05:59:39;26.6;24.266666666666666;
46381;PMS5003;66809;52.974;-2.514;2024-03-06T06:01:40;26.733333333333334;24.383333333333333;
46381;PMS5003;66809;52.974;-2.514;2024-03-06T06:03:40;26.566666666666666;24.183333333333334;
46381;PMS5003;66809;52.974;-2.514;2024-03-06T06:05:40;26.716666666666665;24.383333333333333;
46381;PMS5003;66809;52.974;-2.514;2024-03-06T06:07:39;27.016666666666666;24.583333333333332;
46381;PMS5003;66809;52.974;-2.514;2024-03-06T06:09:40;27.1;24.666666666666668;
46381;PMS5003;66809;52.974;-2.514;2024-03-06T06:11:40;27.166666666666668;24.9;
46381;PMS5003;66809;52.974;-2.514;2024-03-06T06:13:39;27.666666666666668;25.233333333333334;
46381;PMS5003;66809;52.974;-2.514;2024-03-06T06:15:40;27.766666666666666;25.416666666666668;
46381;PMS5003;66809;52.974;-2.514;2024-03-06T06:17:40;27.733333333333334;25.5;
46381;PMS5003;66809;52.974;-2.514;2024-03-06T06:19:41;27.866666666666667;25.55;
46381;PMS5003;66809;52.974;-2.514;2024-03-06T06:21:40;27.9;25.633333333333333;
46381;PMS5003;66809;52.974;-2.514;2024-03-06T06:23:39;27.8;25.55;
46381;PMS5003;66809;52.974;-2.514;2024-03-06T06:25:39;27.883333333333333;25.583333333333332;
46381;PMS5003;66809;52.974;-2.514;2024-03-06T06:27:40;28.016666666666666;25.583333333333332;
46381;PMS5003;66809;52.974;-2.514;2024-03-06T06:29:39;28.216666666666665;25.75;
46381;PMS5003;66809;52.974;-2.514;2024-03-06T06:31:40;28.6;26.0;
46381;PMS5003;66809;52.974;-2.514;2024-03-06T06:33:40;29.333333333333332;26.616666666666667;
46381;PMS5003;66809;52.974;-2.514;2024-03-06T06:35:40;30.166666666666668;27.25;
46381;PMS5003;66809;52.974;-2.514;2024-03-06T06:37:39;30.85;27.816666666666666;
46381;PMS5003;66809;52.974;-2.514;2024-03-06T06:39:40;31.416666666666668;28.416666666666668;
46381;PMS5003;66809;52.974;-2.514;2024-03-06T06:41:40;31.816666666666666;28.75;
46381;PMS5003;66809;52.974;-2.514;2024-03-06T06:43:40;32.21666666666667;29.116666666666667;
46381;PMS5003;66809;52.974;-2.514;2024-03-06T06:45:39;32.9;29.716666666666665;
46381;PMS5003;66809;52.974;-2.514;2024-03-06T06:47:40;33.35;30.05;
46381;PMS5003;66809;52.974;-2.514;2024-03-06T06:49:40;33.93333333333333;30.4;
46381;PMS5003;66809;52.974;-2.514;2024-03-06T06:51:39;34.13333333333333;30.6;
46381;PMS5003;66809;52.974;-2.514;2024-03-06T06:53:40;34.38333333333333;30.783333333333335;
46381;PMS5003;66809;52.974;-2.514;2024-03-06T06:55:40;34.5;30.816666666666666;
46381;PMS5003;66809;52.974;-2.514;2024-03-06T06:57:39;34.9;31.133333333333333;
46381;PMS5003;66809;52.974;-2.514;2024-03-06T06:59:40;35.28333333333333;31.4;
46381;PMS5003;66809;52.974;-2.514;2024-03-06T07:01:39;35.516666666666666;31.6;
46381;PMS5003;66809;52.974;-2.514;2024-03-06T07:03:39;36.016666666666666;32.083333333333336;
46381;PMS5003;66809;52.974;-2.514;2024-03-06T07:05:40;36.21666666666667;32.06666666666667;
46381;PMS5003;66809;52.974;-2.514;2024-03-06T07:07:40;36.21666666666667;32.06666666666667;
46381;PMS5003;66809;52.974;-2.514;2024-03-06T07:09:40;36.516666666666666;32.25;
46381;PMS5003;66809;52.974;-2.514;2024-03-06T07:11:39;36.68333333333333;32.38333333333333;
46381;PMS5003;66809;52.974;-2.514;2024-03-06T07:13:40;36.9;32.63333333333333;
46381;PMS5003;66809;52.974;-2.514;2024-03-06T07:15:40;37.4;32.95;
46381;PMS5003;66809;52.974;-2.514;2024-03-06T07:17:40;38.083333333333336;33.53333333333333;
46381;PMS5003;66809;52.974;-2.514;2024-03-06T07:19:40;38.666666666666664;34.016666666666666;
46381;PMS5003;66809;52.974;-2.514;2024-03-06T07:21:40;39.06666666666667;34.416666666666664;
46381;PMS5003;66809;52.974;-2.514;2024-03-06T07:23:39;39.88333333333333;35.25;
46381;PMS5003;66809;52.974;-2.514;2024-03-06T07:25:40;40.43333333333333;35.88333333333333;
46381;PMS5003;66809;52.974;-2.514;2024-03-06T07:27:40;41.05;36.45;
46381;PMS5003;66809;52.974;-2.514;2024-03-06T07:29:39;41.53333333333333;36.81666666666667;
46381;PMS5003;66809;52.974;-2.514;2024-03-06T07:31:40;41.5;36.88333333333333;
46381;PMS5003;66809;52.974;-2.514;2024-03-06T07:33:40;41.416666666666664;36.8;
46381;PMS5003;66809;52.974;-2.514;2024-03-06T07:35:39;41.13333333333333;36.61666666666667;
46381;PMS5003;66809;52.974;-2.514;2024-03-06T07:37:39;41.21666666666667;36.7;
46381;PMS5003;66809;52.974;-2.514;2024-03-06T07:39:40;41.2;36.583333333333336;
46381;PMS5003;66809;52.974;-2.514;2024-03-06T07:41:39;41.36666666666667;36.78333333333333;
46381;PMS5003;66809;52.974;-2.514;2024-03-06T07:43:40;41.45;36.95;
46381;PMS5003;66809;52.974;-2.514;2024-03-06T07:45:40;41.2;36.86666666666667;
46381;PMS5003;66809;52.974;-2.514;2024-03-06T07:47:39;41.18333333333333;36.85;
46381;PMS5003;66809;52.974;-2.514;2024-03-06T07:49:39;41.06666666666667;36.916666666666664;
46381;PMS5003;66809;52.974;-2.514;2024-03-06T07:51:40;41.18333333333333;37.11666666666667;
46381;PMS5003;66809;52.974;-2.514;2024-03-06T07:53:40;41.483333333333334;37.45;
46381;PMS5003;66809;52.974;-2.514;2024-03-06T07:55:39;41.6;37.63333333333333;
46381;PMS5003;66809;52.974;-2.514;2024-03-06T07:57:40;41.65;37.68333333333333;
46381;PMS5003;66809;52.974;-2.514;2024-03-06T07:59:40;41.516666666666666;37.78333333333333;
46381;PMS5003;66809;52.974;-2.514;2024-03-06T08:01:39;41.85;38.05;
46381;PMS5003;66809;52.974;-2.514;2024-03-06T08:03:40;41.95;38.233333333333334;
46381;PMS5003;66809;52.974;-2.514;2024-03-06T08:05:40;42.28333333333333;38.68333333333333;
46381;PMS5003;66809;52.974;-2.514;2024-03-06T08:07:40;42.61666666666667;39.03333333333333;
46381;PMS5003;66809;52.974;-2.514;2024-03-06T08:09:39;42.75;39.2;
46381;PMS5003;66809;52.974;-2.514;2024-03-06T08:11:40;43.0;39.38333333333333;
46381;PMS5003;66809;52.974;-2.514;2024-03-06T08:13:40;43.016666666666666;39.4;
46381;PMS5003;66809;52.974;-2.514;2024-03-06T08:15:40;42.96666666666667;39.483333333333334;
46381;PMS5003;66809;52.974;-2.514;2024-03-06T08:17:40;42.666666666666664;39.25;
46381;PMS5003;66809;52.974;-2.514;2024-03-06T08:19:39;42.483333333333334;39.18333333333333;
46381;PMS5003;66809;52.974;-2.514;2024-03-06T08:21:40;42.35;39.0;
46381;PMS5003;66809;52.974;-2.514;2024-03-06T08:23:40;42.05;38.7;
46381;PMS5003;66809;52.974;-2.514;2024-03-06T08:25:39;42.0;38.45;
46381;PMS5003;66809;52.974;-2.514;2024-03-06T08:27:40;41.65;38.15;
46381;PMS5003;66809;52.974;-2.514;2024-03-06T08:29:39;41.4;38.03333333333333;
46381;PMS5003;66809;52.974;-2.514;2024-03-06T08:31:39;41.266666666666666;37.86666666666667;
46381;PMS5003;66809;52.974;-2.514;2024-03-06T08:33:40;41.25;37.916666666666664;
46381;PMS5003;66809;52.974;-2.514;2024-03-06T08:35:39;41.05;37.8;
46381;PMS5003;66809;52.974;-2.514;2024-03-06T08:37:40;40.81666666666667;37.65;
46381;PMS5003;66809;52.974;-2.514;2024-03-06T08:39:39;40.916666666666664;37.75;
46381;PMS5003;66809;52.974;-2.514;2024-03-06T08:41:40;40.88333333333333;37.733333333333334;
46381;PMS5003;66809;52.974;-2.514;2024-03-06T08:43:39;40.68333333333333;37.45;
46381;PMS5003;66809;52.974;-2.514;2024-03-06T08:45:40;40.68333333333333;37.416666666666664;
46381;PMS5003;66809;52.974;-2.514;2024-03-06T08:47:40;40.333333333333336;37.2;
46381;PMS5003;66809;52.974;-2.514;2024-03-06T08:49:39;40.516666666666666;37.25;
46381;PMS5003;66809;52.974;-2.514;2024-03-06T08:51:40;40.483333333333334;37.166666666666664;
46381;PMS5003;66809;52.974;-2.514;2024-03-06T08:53:40;40.21666666666667;37.0;
46381;PMS5003;66809;52.974;-2.514;2024-03-06T08:55:39;40.11666666666667;36.95;
46381;PMS5003;66809;52.974;-2.514;2024-03-06T08:57:40;40.11666666666667;36.833333333333336;
46381;PMS5003;66809;52.974;-2.514;2024-03-06T08:59:40;40.25;36.833333333333336;
46381;PMS5003;66809;52.974;-2.514;2024-03-06T09:01:39;40.15;36.766666666666666;
46381;PMS5003;66809;52.974;-2.514;2024-03-06T09:03:40;40.03333333333333;36.583333333333336;
46381;PMS5003;66809;52.974;-2.514;2024-03-06T09:05:40;39.93333333333333;36.5;
46381;PMS5003;66809;52.974;-2.514;2024-03-06T09:07:39;39.7;36.28333333333333;
46381;PMS5003;66809;52.974;-2.514;2024-03-06T09:09:39;39.38333333333333;35.983333333333334;
46381;PMS5003;66809;52.974;-2.514;2024-03-06T09:11:39;39.166666666666664;35.81666666666667;
46381;PMS5003;66809;52.974;-2.514;2024-03-06T09:13:40;38.916666666666664;35.56666666666667;
46381;PMS5003;66809;52.974;-2.514;2024-03-06T09:15:40;38.86666666666667;35.483333333333334;
46381;PMS5003;66809;52.974;-2.514;2024-03-06T09:17:39;38.95;35.53333333333333;
46381;PMS5003;66809;52.974;-2.514;2024-03-06T09:19:40;39.016666666666666;35.65;
46381;PMS5003;66809;52.974;-2.514;2024-03-06T09:21:39;39.083333333333336;35.733333333333334;
46381;PMS5003;66809;52.974;-2.514;2024-03-06T09:23:39;39.166666666666664;35.75;
46381;PMS5003;66809;52.974;-2.514;2024-03-06T09:25:40;39.13333333333333;35.833333333333336;
46381;PMS5003;66809;52.974;-2.514;2024-03-06T09:27:39;39.516666666666666;36.3;
46381;PMS5003;66809;52.974;-2.514;2024-03-06T09:29:39;39.86666666666667;36.583333333333336;
46381;PMS5003;66809;52.974;-2.514;2024-03-06T09:31:41;40.166666666666664;36.9;
46381;PMS5003;66809;52.974;-2.514;2024-03-06T09:33:40;40.36666666666667;37.0;